Time;durP1;ratioP1;P1;durP2;ratioP2;P2;SDS_P1;SDS_P2;PMS_P1;PMS_P2;Temp;Humidity;BMP_temperature;BMP_pressure;BME280_temperature;BME280_humidity;BME280_pressure;Samples;Min_cycle;Max_cycle;Signal;HPM_P1;HPM_P2
2021/01/17 00:02:40;;;;;;;139.80;74.90;;;;;;;-6.67;71.09;98506.36;2148326;83;21205;-83
2021/01/17 00:05:41;;;;;;;16.13;9.07;;;;;;;-4.52;86.84;98510.66;2185896;81;21154;-83
2021/01/17 00:08:42;;;;;;;14.13;8.83;;;;;;;-3.99;67.04;98506.84;2185710;81;21158;-85
2021/01/17 00:11:43;;;;;;;19.00;9.47;;;;;;;-5.36;64.93;98505.44;2185911;81;21289;-83
2021/01/17 00:14:44;;;;;;;16.30;9.17;;;;;;;-6.11;67.28;98506.61;2185721;81;21564;-81
2021/01/17 00:17:45;;;;;;;17.17;8.93;;;;;;;-6.57;68.09;98520.61;2185611;81;21122;-81
2021/01/17 00:20:46;;;;;;;16.90;8.87;;;;;;;-6.93;68.64;98524.77;2184728;81;21567;-82
2021/01/17 00:23:48;;;;;;;24.60;11.57;;;;;;;-7.17;69.58;98535.20;2165441;82;21264;-81
2021/01/17 00:26:49;;;;;;;23.63;11.90;;;;;;;-7.29;70.10;98541.00;2165462;82;21146;-82
2021/01/17 00:29:51;;;;;;;31.80;15.37;;;;;;;-7.45;70.29;98541.11;2165476;82;21268;-84
2021/01/17 00:32:52;;;;;;;21.73;12.13;;;;;;;-7.58;70.48;98545.13;2165141;82;21400;-82
2021/01/17 00:35:53;;;;;;;28.77;13.67;;;;;;;-7.72;70.61;98542.80;2164652;82;21118;-81
2021/01/17 00:38:54;;;;;;;53.30;22.33;;;;;;;-7.85;70.76;98547.27;2164749;82;21174;-81
2021/01/17 00:41:55;;;;;;;38.47;17.30;;;;;;;-7.98;70.77;98545.81;2164587;82;21179;-83
2021/01/17 00:44:56;;;;;;;40.30;18.70;;;;;;;-8.08;70.94;98551.81;2164493;82;21154;-82
2021/01/17 00:47:57;;;;;;;79.17;39.73;;;;;;;-8.14;71.11;98558.92;2164736;82;21154;-81
2021/01/17 00:50:58;;;;;;;117.87;62.27;;;;;;;-8.02;76.91;98557.36;2164895;82;21142;-81
2021/01/17 00:54:00;;;;;;;19.33;10.13;;;;;;;-3.90;88.18;98548.22;2164614;82;21191;-83
2021/01/17 00:57:03;;;;;;;20.63;9.87;;;;;;;-4.19;66.41;98554.41;2164600;82;21174;-81
2021/01/17 01:00:04;;;;;;;28.87;13.30;;;;;;;-5.77;65.46;98559.42;2164563;82;21143;-82
2021/01/17 01:03:08;;;;;;;27.37;13.83;;;;;;;-6.60;67.22;98577.51;2164497;82;21181;-81
2021/01/17 01:06:09;;;;;;;28.70;14.03;;;;;;;-7.14;67.92;98584.89;2164421;82;21174;-82
2021/01/17 01:09:12;;;;;;;23.90;12.20;;;;;;;-7.56;68.56;98586.69;2164548;82;21536;-80
2021/01/17 01:12:13;;;;;;;24.20;12.00;;;;;;;-7.85;69.37;98590.34;2164516;82;21404;-81
2021/01/17 01:15:14;;;;;;;21.67;10.63;;;;;;;-8.02;69.97;98596.62;2164350;82;21174;-80
2021/01/17 01:18:15;;;;;;;19.83;12.23;;;;;;;-8.17;70.31;98603.38;2164700;82;21170;-81
2021/01/17 01:21:16;;;;;;;31.33;13.43;;;;;;;-8.31;70.58;98603.92;2164523;82;21202;-82
2021/01/17 01:24:17;;;;;;;29.57;13.80;;;;;;;-8.42;70.83;98604.36;2164499;82;21131;-83
2021/01/17 01:27:18;;;;;;;28.43;13.13;;;;;;;-8.57;71.23;98609.45;2164610;82;21175;-82
2021/01/17 01:30:19;;;;;;;26.10;13.33;;;;;;;-8.62;71.52;98614.13;2164617;82;21163;-80
2021/01/17 01:33:20;;;;;;;25.87;13.87;;;;;;;-8.67;71.57;98609.05;2164378;82;21154;-83
2021/01/17 01:36:21;;;;;;;24.63;12.40;;;;;;;-8.70;71.93;98620.17;2164463;82;21120;-80
2021/01/17 01:39:25;;;;;;;33.10;13.93;;;;;;;-8.70;71.93;98621.44;2164533;82;21554;-79
2021/01/17 01:42:26;;;;;;;33.13;15.93;;;;;;;-8.74;72.17;98624.09;2164548;82;21181;-80
2021/01/17 01:45:27;;;;;;;33.73;14.60;;;;;;;-8.76;72.21;98619.67;2164585;82;21138;-80
2021/01/17 01:48:28;;;;;;;34.80;15.03;;;;;;;-8.75;72.50;98623.97;2164484;82;21139;-81
2021/01/17 01:51:29;;;;;;;35.47;16.77;;;;;;;-8.75;72.35;98621.44;2164461;82;21416;-82
2021/01/17 01:54:31;;;;;;;32.97;14.70;;;;;;;-8.75;72.54;98627.77;2164659;82;21467;-81
2021/01/17 01:57:32;;;;;;;25.47;13.50;;;;;;;-8.75;72.48;98627.39;2164809;82;21166;-81
2021/01/17 02:00:33;;;;;;;26.37;13.17;;;;;;;-8.73;72.45;98630.94;2164534;82;21519;-80
2021/01/17 02:03:34;;;;;;;24.77;11.30;;;;;;;-8.73;72.44;98629.67;2164486;82;21142;-80
2021/01/17 02:06:35;;;;;;;22.90;11.87;;;;;;;-8.71;72.38;98628.53;2164745;82;21110;-82
2021/01/17 02:09:36;;;;;;;28.77;14.03;;;;;;;-8.69;72.46;98629.54;2164566;82;21412;-80
2021/01/17 02:12:37;;;;;;;33.27;14.30;;;;;;;-8.68;72.47;98632.58;2164410;82;21139;-81
2021/01/17 02:15:38;;;;;;;33.07;15.13;;;;;;;-8.65;72.45;98633.23;2164537;82;21154;-83
2021/01/17 02:18:40;;;;;;;58.13;20.87;;;;;;;-8.57;72.59;98640.70;2164380;82;21135;-80
2021/01/17 02:21:41;;;;;;;86.93;36.93;;;;;;;-8.45;72.25;98639.55;2165942;82;21178;-80
2021/01/17 02:24:42;;;;;;;55.37;23.97;;;;;;;-4.50;88.73;98639.02;2174304;82;21531;-80
2021/01/17 02:27:43;;;;;;;71.73;29.07;;;;;;;-2.46;87.11;98625.97;2173913;82;21300;-81
2021/01/17 02:30:45;;;;;;;84.53;32.43;;;;;;;-4.03;74.78;98629.81;2174406;82;21264;-80
2021/01/17 02:33:46;;;;;;;74.57;26.37;;;;;;;-5.17;68.16;98631.89;2174075;82;21281;-80
2021/01/17 02:36:47;;;;;;;41.00;19.23;;;;;;;-5.91;68.27;98638.05;2174259;82;21090;-84
2021/01/17 02:39:48;;;;;;;44.40;19.43;;;;;;;-6.44;68.03;98646.04;2173905;82;21256;-82
2021/01/17 02:42:49;;;;;;;42.83;20.03;;;;;;;-6.84;68.00;98653.98;2173444;82;21313;-81
2021/01/17 02:45:50;;;;;;;41.77;19.00;;;;;;;-7.15;68.31;98657.95;2174017;82;21293;-83
2021/01/17 02:48:52;;;;;;;50.13;20.20;;;;;;;-7.35;68.33;98660.61;2174200;82;21555;-80
2021/01/17 02:51:52;;;;;;;39.40;18.63;;;;;;;-7.55;68.74;98672.11;2174176;82;21260;-80
2021/01/17 02:54:54;;;;;;;44.47;20.67;;;;;;;-7.74;68.25;98669.39;2174059;82;21563;-79
2021/01/17 02:57:55;;;;;;;53.40;22.70;;;;;;;-7.88;68.61;98669.91;2174291;82;21268;-81
2021/01/17 03:00:56;;;;;;;66.53;24.47;;;;;;;-7.94;69.07;98672.34;2174081;82;21300;-81
2021/01/17 03:03:57;;;;;;;109.97;37.20;;;;;;;-7.94;69.46;98675.76;2174113;82;21289;-80
2021/01/17 03:06:58;;;;;;;82.57;28.27;;;;;;;-7.93;69.27;98670.30;2174224;82;21261;-82
2021/01/17 03:09:59;;;;;;;125.77;54.83;;;;;;;-7.88;69.33;98676.24;2174798;82;21261;-82
2021/01/17 03:13:00;;;;;;;84.77;31.63;;;;;;;-3.71;88.67;98666.70;2174279;82;21252;-79
2021/01/17 03:16:01;;;;;;;41.77;18.30;;;;;;;-1.09;85.46;98658.09;2174612;82;21169;-83
2021/01/17 03:19:04;;;;;;;88.90;31.23;;;;;;;-3.32;66.68;98664.16;2174274;82;21519;-81
2021/01/17 03:22:05;;;;;;;59.80;22.57;;;;;;;-4.84;64.89;98669.36;2172221;82;21673;-80
2021/01/17 03:25:07;;;;;;;53.93;22.97;;;;;;;-5.85;64.85;98672.78;2164435;82;21136;-80
2021/01/17 03:28:08;;;;;;;228.00;128.77;;;;;;;-6.47;65.82;98676.28;2164639;82;21169;-82
2021/01/17 03:31:09;;;;;;;52.47;23.90;;;;;;;-5.92;82.25;98677.84;2164684;82;21273;-82
2021/01/17 03:34:10;;;;;;;73.63;26.47;;;;;;;-2.45;74.07;98669.52;2164540;82;21594;-80
2021/01/17 03:37:11;;;;;;;41.63;20.13;;;;;;;-4.12;63.40;98664.91;2164532;82;21133;-81
2021/01/17 03:40:14;;;;;;;41.97;17.90;;;;;;;-5.31;61.29;98673.28;2164522;82;21163;-81
2021/01/17 03:43:16;;;;;;;43.63;20.60;;;;;;;-6.49;62.56;98680.75;2164229;82;21170;-82
2021/01/17 03:46:17;;;;;;;59.43;25.03;;;;;;;-7.23;63.75;98689.84;2164559;82;21146;-81
2021/01/17 03:49:18;;;;;;;81.57;31.53;;;;;;;-7.76;64.99;98690.30;2164568;82;21139;-81
2021/01/17 03:52:19;;;;;;;41.93;18.33;;;;;;;-8.10;64.37;98693.02;2164405;82;21404;-81
2021/01/17 03:55:20;;;;;;;34.30;16.43;;;;;;;-8.41;64.42;98701.94;2164446;82;21140;-80
2021/01/17 03:58:21;;;;;;;37.93;17.07;;;;;;;-8.75;64.79;98695.70;2164313;82;21166;-80
2021/01/17 04:01:22;;;;;;;31.63;16.57;;;;;;;-8.98;65.50;98704.64;2164650;82;21472;-81
2021/01/17 04:04:23;;;;;;;37.60;17.33;;;;;;;-9.11;65.70;98712.46;2164220;82;21151;-80
2021/01/17 04:07:24;;;;;;;41.27;16.80;;;;;;;-9.23;66.16;98707.63;2164621;82;21249;-82
2021/01/17 04:10:25;;;;;;;46.40;17.23;;;;;;;-9.25;66.38;98712.04;2164540;82;21107;-81
2021/01/17 04:13:26;;;;;;;40.43;17.50;;;;;;;-9.38;66.64;98708.46;2164462;82;21178;-80
2021/01/17 04:16:27;;;;;;;32.43;14.90;;;;;;;-9.43;66.61;98719.81;2164633;82;21110;-83
2021/01/17 04:19:31;;;;;;;38.47;16.60;;;;;;;-9.53;66.91;98717.62;2164406;82;21130;-80
2021/01/17 04:22:32;;;;;;;44.97;17.73;;;;;;;-9.56;67.22;98723.64;2166897;82;21212;-80
2021/01/17 04:25:36;;;;;;;36.57;15.83;;;;;;;-9.51;67.10;98736.33;2174544;82;21264;-82
2021/01/17 04:28:37;;;;;;;34.67;15.80;;;;;;;-9.68;66.68;98735.72;2174873;82;21162;-81
2021/01/17 04:31:38;;;;;;;39.43;17.27;;;;;;;-9.82;67.09;98736.14;2174389;82;21547;-80
2021/01/17 04:34:39;;;;;;;40.33;18.70;;;;;;;-9.94;67.49;98746.80;2174387;82;21256;-80
2021/01/17 04:37:40;;;;;;;40.50;17.43;;;;;;;-10.07;67.52;98756.19;2174546;82;21265;-81
2021/01/17 04:40:41;;;;;;;33.90;16.20;;;;;;;-10.08;67.96;98761.98;2174330;82;21244;-80
2021/01/17 04:43:42;;;;;;;37.43;16.87;;;;;;;-10.10;68.10;98775.73;2173999;82;21256;-80
2021/01/17 04:46:43;;;;;;;40.23;17.73;;;;;;;-10.13;67.98;98767.00;2174310;82;21106;-80
2021/01/17 04:49:44;;;;;;;37.47;18.73;;;;;;;-10.22;68.30;98766.20;2174078;82;21253;-81
2021/01/17 04:52:49;;;;;;;44.17;19.33;;;;;;;-10.28;68.34;98773.23;2174357;82;21288;-81
2021/01/17 04:55:50;;;;;;;;;;;;;;;-10.39;68.53;98775.67;2176861;82;21284;-80
2021/01/17 04:58:51;;;;;;;36.57;17.90;;;;;;;-10.42;68.93;98778.25;2174254;82;20229;-83
2021/01/17 05:01:55;;;;;;;37.60;17.80;;;;;;;-10.40;68.86;98791.92;2173928;82;21607;-80
2021/01/17 05:04:56;;;;;;;39.00;17.33;;;;;;;-10.40;68.93;98795.34;2174164;82;21563;-79
2021/01/17 05:08:00;;;;;;;39.93;19.13;;;;;;;-10.38;69.01;98797.63;2174338;82;21257;-79
2021/01/17 05:11:01;;;;;;;266.93;120.57;;;;;;;-10.28;70.12;98794.67;2167341;82;21147;-80
2021/01/17 05:14:02;;;;;;;39.53;18.83;;;;;;;-3.47;89.31;98765.23;2163963;82;21114;-83
2021/01/17 05:17:04;;;;;;;34.70;17.90;;;;;;;-1.59;85.83;98761.53;2162894;82;21310;-81
2021/01/17 05:20:05;;;;;;;39.97;17.57;;;;;;;-4.04;71.45;98772.09;2163038;82;21173;-80
2021/01/17 05:23:06;;;;;;;37.17;17.57;;;;;;;-5.79;65.31;98781.27;2162640;82;21554;-79
2021/01/17 05:26:07;;;;;;;40.77;18.73;;;;;;;-6.85;64.09;98785.07;2162997;82;21134;-80
2021/01/17 05:29:08;;;;;;;41.43;19.80;;;;;;;-7.52;64.58;98797.84;2162746;82;21145;-80
2021/01/17 05:32:09;;;;;;;48.60;18.93;;;;;;;-8.08;64.78;98806.36;2162833;82;21126;-78
2021/01/17 05:35:10;;;;;;;81.10;34.53;;;;;;;-8.48;65.34;98809.77;2163529;82;21154;-80
2021/01/17 05:38:11;;;;;;;205.87;93.03;;;;;;;-7.05;83.32;98809.23;2164145;82;21170;-81
2021/01/17 05:41:12;;;;;;;151.00;67.47;;;;;;;-0.84;87.91;98790.61;2162772;82;21312;-81
2021/01/17 05:44:13;;;;;;;56.87;24.73;;;;;;;3.19;76.50;98783.41;2163629;82;21707;-80
2021/01/17 05:47:16;;;;;;;51.60;25.37;;;;;;;4.42;55.08;98778.58;2163538;82;21300;-79
2021/01/17 05:50:17;;;;;;;53.63;25.13;;;;;;;0.99;51.61;98799.31;2163523;82;21554;-80
2021/01/17 05:53:18;;;;;;;49.63;23.03;;;;;;;-1.81;51.20;98807.98;2163161;82;21282;-79
2021/01/17 05:56:19;;;;;;;45.90;21.17;;;;;;;-3.81;52.28;98818.26;2162934;82;21416;-79
2021/01/17 05:59:20;;;;;;;45.63;22.70;;;;;;;-5.18;55.21;98822.27;2162040;82;21273;-77
2021/01/17 06:02:22;;;;;;;33.37;17.73;;;;;;;-6.12;56.48;98826.27;2162646;82;21285;-78
2021/01/17 06:05:23;;;;;;;94.27;37.10;;;;;;;-6.82;57.39;98825.92;2162544;82;21535;-77
2021/01/17 06:08:24;;;;;;;50.47;23.47;;;;;;;-7.22;58.68;98831.99;2162678;82;21253;-77
2021/01/17 06:11:25;;;;;;;43.10;20.43;;;;;;;-7.40;59.42;98834.33;2161830;82;21543;-77
2021/01/17 06:14:26;;;;;;;41.17;19.43;;;;;;;-7.60;59.47;98845.39;2162826;82;21253;-78
2021/01/17 06:17:27;;;;;;;45.43;21.40;;;;;;;-7.84;60.08;98848.03;2162914;82;21244;-77
2021/01/17 06:20:28;;;;;;;47.87;21.97;;;;;;;-8.05;60.63;98861.45;2162818;82;21154;-77
2021/01/17 06:23:34;;;;;;;48.87;22.07;;;;;;;-8.14;61.13;98859.41;2162891;82;21280;-78
2021/01/17 06:26:32;;;;;;;61.17;26.07;;;;;;;-8.27;61.54;98866.73;2162549;82;21304;-77
2021/01/17 06:29:33;;;;;;;43.47;20.30;;;;;;;-8.31;61.70;98869.77;2162439;82;21257;-78
2021/01/17 06:32:34;;;;;;;54.40;24.43;;;;;;;-8.45;61.74;98873.31;2162824;82;21118;-78
2021/01/17 06:35:37;;;;;;;86.77;33.70;;;;;;;-8.55;62.15;98888.86;2163890;82;21269;-78
2021/01/17 06:38:41;;;;;;;79.23;32.97;;;;;;;-8.53;62.62;98894.94;2163647;82;21253;-78
2021/01/17 06:41:42;;;;;;;57.80;25.37;;;;;;;-8.58;62.40;98908.46;2163336;82;21274;-78
2021/01/17 06:44:44;;;;;;;40.83;21.07;;;;;;;-8.56;62.59;98910.74;2163162;82;21265;-78
2021/01/17 06:47:45;;;;;;;47.90;20.40;;;;;;;-8.58;62.41;98910.10;2162893;82;21257;-78
2021/01/17 06:50:46;;;;;;;60.13;27.50;;;;;;;-8.54;62.07;98918.09;2162826;82;21594;-78
2021/01/17 06:53:47;;;;;;;80.73;30.70;;;;;;;-8.52;62.50;98915.69;2162978;82;21146;-79
2021/01/17 06:56:48;;;;;;;67.57;26.63;;;;;;;-8.49;62.28;98913.05;2162854;82;21135;-78
2021/01/17 06:59:49;;;;;;;55.03;26.70;;;;;;;-8.44;62.06;98919.77;2162894;82;21166;-78
2021/01/17 07:02:51;;;;;;;51.07;24.33;;;;;;;-8.38;61.88;98919.92;2163603;82;21301;-78
2021/01/17 07:05:52;;;;;;;40.57;19.13;;;;;;;-8.33;62.19;98916.89;2163422;82;21277;-78
2021/01/17 07:08:53;;;;;;;52.47;23.83;;;;;;;-8.33;62.16;98915.62;2163401;82;21273;-78
2021/01/17 07:11:54;;;;;;;47.03;20.63;;;;;;;-8.27;61.70;98917.38;2163497;82;21571;-79
2021/01/17 07:14:55;;;;;;;53.47;24.77;;;;;;;-8.12;61.69;98928.81;2163031;82;21257;-77
2021/01/17 07:17:56;;;;;;;46.53;21.87;;;;;;;-8.05;61.17;98929.84;2163056;82;21257;-79
2021/01/17 07:21:00;;;;;;;61.73;26.00;;;;;;;-8.03;60.45;98939.72;2163580;82;21308;-77
2021/01/17 07:24:01;;;;;;;62.00;27.27;;;;;;;-7.96;60.47;98945.81;2163192;82;21576;-77
2021/01/17 07:27:02;;;;;;;50.30;23.70;;;;;;;-7.89;60.46;98951.02;2163388;82;21245;-77
2021/01/17 07:30:03;;;;;;;65.80;26.73;;;;;;;-7.88;60.23;98960.40;2163164;82;21304;-78
2021/01/17 07:33:04;;;;;;;52.17;23.30;;;;;;;-7.79;60.36;98955.77;2163393;82;21269;-78
2021/01/17 07:36:05;;;;;;;49.97;21.17;;;;;;;-7.68;60.04;98955.77;2163307;82;21558;-79
2021/01/17 07:39:07;;;;;;;58.37;23.07;;;;;;;-7.58;59.28;98959.20;2163396;82;21155;-78
2021/01/17 07:42:08;;;;;;;47.80;19.87;;;;;;;-7.48;59.48;98968.46;2163477;82;21301;-78
2021/01/17 07:45:09;;;;;;;48.70;20.97;;;;;;;-7.35;59.43;98970.36;2161771;82;21138;-77
2021/01/17 07:48:19;;;;;;;52.80;21.00;;;;;;;-7.25;59.09;98977.59;2163605;82;21413;-78
2021/01/17 07:51:20;;;;;;;45.83;21.77;;;;;;;-7.26;58.52;98978.73;2163831;82;21257;-78
2021/01/17 07:54:34;;;;;;;52.40;20.90;;;;;;;-7.29;59.12;98979.37;2163444;82;21424;-77
2021/01/17 07:57:35;;;;;;;54.58;24.32;;;;;;;-7.21;59.21;98973.27;2163549;82;21150;-78
2021/01/17 08:00:36;;;;;;;74.87;29.40;;;;;;;-7.10;59.35;98979.23;2163522;82;21162;-77
2021/01/17 08:03:37;;;;;;;47.07;20.20;;;;;;;-7.07;59.15;98980.37;2163172;82;21190;-77
2021/01/17 08:06:38;;;;;;;58.90;24.67;;;;;;;-7.08;58.68;98981.13;2163560;82;21272;-78
2021/01/17 08:09:40;;;;;;;44.77;21.20;;;;;;;-7.12;59.30;98976.56;2163226;82;21288;-77
2021/01/17 08:12:42;;;;;;;42.20;19.57;;;;;;;-7.00;59.50;98977.95;2162982;82;21277;-78
2021/01/17 08:15:43;;;;;;;40.90;21.10;;;;;;;-6.72;60.07;98979.84;2163231;82;21535;-76
2021/01/17 08:18:46;;;;;;;45.67;21.00;;;;;;;-6.67;58.10;98983.62;2163775;82;21142;-77
2021/01/17 08:21:49;;;;;;;45.60;21.93;;;;;;;-6.68;56.83;98981.86;2163764;82;21240;-76
2021/01/17 08:24:50;;;;;;;43.43;20.93;;;;;;;-6.71;57.02;98993.03;2163414;82;21178;-76
2021/01/17 08:27:51;;;;;;;57.60;25.87;;;;;;;-6.69;55.88;98998.23;2163168;82;21248;-76
2021/01/17 08:34:22;;;;;;;50.87;23.03;;;;;;;-6.78;55.07;99002.19;2163647;82;21159;-76
2021/01/17 08:37:23;;;;;;;43.97;18.93;;;;;;;-6.79;54.96;99006.75;2163124;82;21265;-77
2021/01/17 08:40:24;;;;;;;42.90;20.27;;;;;;;-6.65;55.40;99021.45;2163522;82;21252;-76
2021/01/17 08:43:25;;;;;;;47.20;21.93;;;;;;;-6.61;54.92;99018.40;2163414;82;21299;-77
2021/01/17 08:46:34;;;;;;;39.23;20.03;;;;;;;-6.47;54.10;99024.59;2163302;82;21731;-77
2021/01/17 08:49:35;;;;;;;39.60;18.30;;;;;;;-6.47;54.29;99033.48;2162949;82;21535;-77
2021/01/17 08:52:36;;;;;;;67.93;30.03;;;;;;;-6.46;52.81;99038.67;2163393;82;21269;-77
2021/01/17 08:55:37;;;;;;;55.80;26.57;;;;;;;-6.49;54.25;99043.89;2163578;82;21150;-77
2021/01/17 08:58:38;;;;;;;46.90;23.07;;;;;;;-6.30;54.60;99047.14;2163646;82;21162;-77
2021/01/17 09:01:39;;;;;;;57.43;28.57;;;;;;;-6.08;54.44;99052.66;2163514;82;21467;-77
2021/01/17 09:04:40;;;;;;;40.83;19.37;;;;;;;-5.93;54.15;99053.52;2163681;82;21130;-76
2021/01/17 09:07:41;;;;;;;50.07;23.77;;;;;;;-5.81;54.21;99055.72;2210367;80;21257;-77
2021/01/17 09:10:43;;;;;;;37.80;19.40;;;;;;;-5.69;54.06;99059.98;2209635;81;21531;-76
2021/01/17 09:13:44;;;;;;;40.17;20.43;;;;;;;-5.63;53.95;99062.63;2209713;81;21244;-77
2021/01/17 09:16:45;;;;;;;48.00;23.70;;;;;;;-5.52;53.55;99059.64;2209221;81;21279;-77
2021/01/17 09:19:55;;;;;;;44.70;21.03;;;;;;;-5.41;52.40;99070.25;2210212;80;21248;-77
2021/01/17 09:22:58;;;;;;;43.13;22.13;;;;;;;-5.40;52.83;99073.30;2209299;81;21268;-77
2021/01/17 09:26:02;;;;;;;40.17;19.87;;;;;;;-5.47;51.47;99083.77;2209398;81;21162;-77
2021/01/17 09:29:03;;;;;;;36.93;19.00;;;;;;;-5.56;52.02;99081.79;2209339;81;21260;-76
2021/01/17 09:32:04;;;;;;;42.20;20.50;;;;;;;-5.50;52.25;99084.81;2209935;81;21256;-77
2021/01/17 09:35:05;;;;;;;34.47;17.70;;;;;;;-5.50;52.92;99084.81;2208934;81;21264;-76
2021/01/17 09:38:06;;;;;;;44.63;21.30;;;;;;;-5.52;52.04;99088.51;2209252;81;21300;-77
2021/01/17 09:41:07;;;;;;;44.83;21.83;;;;;;;-5.56;52.74;99090.69;2209864;81;21542;-76
2021/01/17 09:44:08;;;;;;;44.13;20.97;;;;;;;-5.43;53.05;99090.88;2209397;80;21261;-76
2021/01/17 09:47:09;;;;;;;48.60;23.00;;;;;;;-5.30;52.92;99096.14;2209632;81;21266;-77
2021/01/17 09:50:16;;;;;;;52.40;24.70;;;;;;;-5.17;52.45;99090.37;2209882;81;21575;-77
2021/01/17 09:53:17;;;;;;;45.13;21.33;;;;;;;-5.20;51.90;99090.13;2209531;81;21423;-77
2021/01/17 09:56:19;;;;;;;43.33;22.50;;;;;;;-5.20;51.51;99089.75;2209925;81;21146;-77
2021/01/17 09:59:21;;;;;;;44.57;21.97;;;;;;;-5.27;51.16;99092.56;2209694;81;21392;-76
2021/01/17 10:02:34;;;;;;;40.63;20.27;;;;;;;-5.25;51.59;99097.77;2210467;81;21185;-77
2021/01/17 10:05:36;;;;;;;42.83;21.97;;;;;;;-5.32;51.14;99098.95;2209589;81;21876;-76
2021/01/17 10:08:43;;;;;;;40.70;21.27;;;;;;;-5.21;52.02;99093.41;2209417;81;21257;-77
2021/01/17 10:11:44;;;;;;;48.07;22.77;;;;;;;-5.15;51.59;99093.53;2209545;81;21252;-76
2021/01/17 10:14:45;;;;;;;37.70;20.67;;;;;;;-4.97;51.34;99095.31;2209848;81;21300;-76
2021/01/17 10:17:47;;;;;;;45.60;22.80;;;;;;;-4.96;50.88;99093.66;2209282;81;21266;-76
2021/01/17 10:20:48;;;;;;;45.60;23.20;;;;;;;-4.88;51.12;99091.30;2209559;81;21543;-77
2021/01/17 10:23:49;;;;;;;44.80;22.60;;;;;;;-4.87;50.91;99096.89;2207471;79;21146;-77
2021/01/17 10:26:51;;;;;;;46.40;24.13;;;;;;;-4.71;51.16;99096.00;2209706;80;21925;-76
2021/01/17 10:29:52;;;;;;;46.27;24.57;;;;;;;-4.62;49.94;99105.98;2208999;81;21158;-77
2021/01/17 10:32:53;;;;;;;39.10;20.97;;;;;;;-4.79;49.01;99103.45;2208972;81;21645;-77
2021/01/17 10:35:55;;;;;;;48.57;23.43;;;;;;;-5.18;48.62;99107.30;2209103;81;21146;-77
2021/01/17 10:38:56;;;;;;;44.73;21.80;;;;;;;-5.34;49.88;99106.85;2209511;81;21232;-77
2021/01/17 10:41:57;;;;;;;40.00;20.77;;;;;;;-5.40;49.25;99112.73;2209842;80;21554;-77
2021/01/17 10:48:25;;;;;;;44.27;20.80;;;;;;;-5.88;50.20;99114.48;2209722;81;21161;-76
2021/01/17 10:51:26;;;;;;;44.73;20.93;;;;;;;-5.86;50.07;99119.69;2209787;80;21138;-77
2021/01/17 10:54:30;;;;;;;40.17;20.47;;;;;;;-5.84;50.90;99113.06;2209942;81;21264;-76
2021/01/17 10:57:30;;;;;;;39.03;19.43;;;;;;;-5.65;51.08;99121.77;2209424;80;21357;-76
2021/01/17 11:00:31;;;;;;;40.63;21.23;;;;;;;-5.50;51.62;99124.23;2209662;81;21253;-78
2021/01/17 11:03:33;;;;;;;46.07;20.70;;;;;;;-5.32;51.48;99128.59;2209504;81;21143;-77
2021/01/17 11:06:35;;;;;;;43.67;22.03;;;;;;;-5.17;51.67;99133.25;2208985;81;21134;-77
2021/01/17 11:09:36;;;;;;;41.53;21.63;;;;;;;-5.07;51.71;99133.95;2209351;81;21269;-77
2021/01/17 11:12:37;;;;;;;40.23;20.67;;;;;;;-4.98;51.40;99133.39;2209679;81;21272;-77
2021/01/17 11:15:38;;;;;;;44.43;22.07;;;;;;;-5.01;50.93;99131.87;2208735;81;21534;-76
2021/01/17 11:18:42;;;;;;;44.13;22.30;;;;;;;-5.05;50.80;99129.48;2209579;81;21253;-77
2021/01/17 11:21:43;;;;;;;55.30;25.43;;;;;;;-4.91;51.36;99121.62;2209386;80;21165;-76
2021/01/17 11:24:45;;;;;;;52.30;22.60;;;;;;;-4.95;50.67;99131.08;2209686;80;21645;-76
2021/01/17 11:27:46;;;;;;;47.43;23.80;;;;;;;-4.96;50.08;99128.03;2209204;81;21138;-76
2021/01/17 11:30:48;;;;;;;47.60;23.37;;;;;;;-5.08;50.95;99133.45;2209801;81;21265;-77
2021/01/17 11:33:49;;;;;;;53.30;26.67;;;;;;;-5.10;50.21;99133.72;2210047;80;21265;-76
2021/01/17 11:36:50;;;;;;;52.73;25.37;;;;;;;-5.29;49.76;99137.36;2209150;81;21263;-76
2021/01/17 11:39:57;;;;;;;49.97;22.53;;;;;;;-5.43;50.47;99132.84;2209945;80;21126;-76
2021/01/17 11:42:58;;;;;;;58.47;26.00;;;;;;;-5.40;50.45;99133.09;2209414;81;21284;-76
2021/01/17 11:46:01;;;;;;;55.90;27.20;;;;;;;-5.31;51.20;99127.83;2209852;81;21507;-76
2021/01/17 11:49:02;;;;;;;54.67;24.97;;;;;;;-5.24;51.49;99125.88;2208575;81;21248;-76
2021/01/17 11:52:03;;;;;;;54.97;25.27;;;;;;;-5.11;51.64;99126.86;2210227;81;21138;-77
2021/01/17 11:55:04;;;;;;;53.27;26.60;;;;;;;-5.07;50.93;99125.05;2209291;81;21531;-77
2021/01/17 11:58:05;;;;;;;60.97;27.90;;;;;;;-5.25;50.46;99138.48;2209947;80;21257;-77
2021/01/17 12:01:06;;;;;;;59.80;28.73;;;;;;;-5.28;50.63;99139.13;2209637;81;21416;-77
2021/01/17 12:04:12;;;;;;;56.33;24.13;;;;;;;-5.11;50.30;99145.56;2209786;81;21260;-77
2021/01/17 12:07:11;;;;;;;55.30;22.87;;;;;;;-5.22;50.17;99134.52;2209192;81;21268;-77
2021/01/17 12:10:14;;;;;;;47.83;23.30;;;;;;;-5.34;50.65;99131.02;2209531;81;21112;-76
2021/01/17 12:13:16;;;;;;;53.97;26.60;;;;;;;-5.39;50.48;99134.86;2209649;81;21264;-76
2021/01/17 12:16:20;;;;;;;53.87;26.13;;;;;;;-5.29;50.72;99132.27;2209518;81;21134;-76
2021/01/17 12:19:21;;;;;;;58.13;26.83;;;;;;;-5.46;50.61;99137.70;2209870;81;21277;-76
2021/01/17 12:22:25;;;;;;;49.93;22.70;;;;;;;-5.59;51.09;99134.96;2209257;81;21165;-76
2021/01/17 12:25:26;;;;;;;46.43;22.63;;;;;;;-5.64;51.78;99133.71;2209935;81;21287;-76
2021/01/17 12:28:27;;;;;;;54.87;26.47;;;;;;;-5.71;51.85;99133.99;2209695;81;21524;-76
2021/01/17 12:31:28;;;;;;;53.20;22.63;;;;;;;-5.77;51.57;99138.20;2210280;80;21122;-77
2021/01/17 12:34:29;;;;;;;58.03;25.87;;;;;;;-5.90;52.28;99140.19;2209729;81;21380;-76
2021/01/17 12:37:31;;;;;;;55.80;26.03;;;;;;;-6.13;52.11;99147.20;2209890;81;21536;-76
2021/01/17 12:40:32;;;;;;;52.23;25.37;;;;;;;-6.11;52.44;99147.33;2209316;81;21143;-76
2021/01/17 12:43:33;;;;;;;56.37;25.63;;;;;;;-6.01;52.05;99150.27;2209209;81;21288;-76
2021/01/17 12:46:34;;;;;;;71.33;32.70;;;;;;;-6.13;52.32;99142.50;2209381;81;21530;-76
2021/01/17 12:49:38;;;;;;;56.73;27.43;;;;;;;-6.27;51.73;99152.81;2209343;81;21256;-76
2021/01/17 12:52:43;;;;;;;54.20;24.30;;;;;;;-6.70;51.77;99161.09;2209710;81;21555;-76
2021/01/17 12:55:42;;;;;;;62.47;29.73;;;;;;;-7.13;52.79;99163.80;2208805;81;21133;-76
2021/01/17 12:58:43;;;;;;;82.07;31.80;;;;;;;-7.20;53.27;99167.84;2209575;81;21511;-76
2021/01/17 13:01:44;;;;;;;83.40;32.60;;;;;;;-7.28;53.95;99173.02;2209824;81;21162;-76
2021/01/17 13:04:45;;;;;;;44.50;21.83;;;;;;;-7.31;53.84;99172.38;2209223;81;21122;-76
2021/01/17 13:07:48;;;;;;;53.10;25.13;;;;;;;-7.38;53.64;99173.88;2209553;81;21253;-75
2021/01/17 13:10:49;;;;;;;99.90;39.60;;;;;;;-7.48;53.73;99177.27;2209777;81;21251;-76
2021/01/17 13:13:51;;;;;;;86.07;38.27;;;;;;;-7.53;54.64;99182.31;2209841;80;21264;-75
2021/01/17 13:16:52;;;;;;;82.80;34.90;;;;;;;-7.49;55.03;99182.20;2210413;81;21130;-76
2021/01/17 13:19:53;;;;;;;69.30;29.40;;;;;;;-7.47;55.68;99189.19;2210101;81;21237;-75
2021/01/17 13:22:54;;;;;;;60.90;28.03;;;;;;;-7.49;55.48;99191.08;2209303;81;21146;-76
2021/01/17 13:25:55;;;;;;;72.77;32.20;;;;;;;-7.68;55.83;99194.03;2209537;81;21276;-76
2021/01/17 13:28:56;;;;;;;48.93;23.60;;;;;;;-7.79;56.62;99200.69;2209688;81;21241;-76
2021/01/17 13:31:59;;;;;;;55.87;25.03;;;;;;;-8.04;55.00;99210.27;2209530;81;21152;-76
2021/01/17 13:35:00;;;;;;;50.73;24.70;;;;;;;-8.02;55.66;99204.96;2209475;81;21893;-76
2021/01/17 13:38:05;;;;;;;60.43;26.60;;;;;;;-7.94;55.67;99206.91;2209831;81;21256;-76
2021/01/17 13:41:06;;;;;;;66.28;29.23;;;;;;;-8.05;56.69;99209.37;2210160;81;21249;-76
2021/01/17 13:44:08;;;;;;;68.23;30.03;;;;;;;-8.25;57.55;99218.48;2209461;81;21264;-76
2021/01/17 13:47:09;;;;;;;66.10;28.43;;;;;;;-8.36;58.38;99220.97;2209826;81;21530;-76
2021/01/17 13:50:16;;;;;;;56.80;24.73;;;;;;;-8.32;58.64;99226.27;2209514;81;21244;-76
2021/01/17 13:53:17;;;;;;;56.23;23.83;;;;;;;-8.31;58.20;99228.05;2209713;81;21252;-76
2021/01/17 13:56:18;;;;;;;50.00;22.23;;;;;;;-8.26;57.60;99228.98;2209589;81;21273;-76
2021/01/17 13:59:19;;;;;;;48.10;22.73;;;;;;;-8.32;56.64;99235.13;2210120;81;21145;-76
2021/01/17 14:02:20;;;;;;;78.93;27.83;;;;;;;-8.36;57.09;99237.42;2209850;81;21565;-76